Time;durP1;ratioP1;P1;durP2;ratioP2;P2;SDS_P1;SDS_P2;PMS_P1;PMS_P2;Temp;Humidity;BMP_temperature;BMP_pressure;BME280_temperature;BME280_humidity;BME280_pressure;Samples;Min_cycle;Max_cycle;Signal;HPM_P1;HPM_P2
2023/05/19 00:02:19;;;;;;;2.63;1.50;;;;;;;;;;5110677;28;20458;-75
2023/05/19 00:04:48;;;;;;;3.57;1.50;;;;;;;;;;5110736;28;20447;-74
2023/05/19 00:07:18;;;;;;;5.30;1.60;;;;;;;;;;5111283;28;20814;-75
2023/05/19 00:09:45;;;;;;;1.87;1.10;;;;;;;;;;5110462;28;21053;-75
2023/05/19 00:12:13;;;;;;;3.43;1.43;;;;;;;;;;5110672;28;20483;-75
2023/05/19 00:14:40;;;;;;;2.03;1.00;;;;;;;;;;5110685;28;20478;-71
2023/05/19 00:17:08;;;;;;;1.90;1.27;;;;;;;;;;5111045;28;20452;-75
2023/05/19 00:19:36;;;;;;;2.40;1.40;;;;;;;;;;5110905;28;20455;-75
2023/05/19 00:22:04;;;;;;;1.80;1.07;;;;;;;;;;5110011;28;20452;-75
2023/05/19 00:24:32;;;;;;;1.80;1.20;;;;;;;;;;5111121;28;20477;-75
2023/05/19 00:27:00;;;;;;;1.87;1.13;;;;;;;;;;5111899;28;20690;-75
2023/05/19 00:29:27;;;;;;;2.93;1.93;;;;;;;;;;5114384;28;20914;-75
2023/05/19 00:31:54;;;;;;;2.20;1.00;;;;;;;;;;5113523;28;20825;-75
2023/05/19 00:34:21;;;;;;;2.83;1.63;;;;;;;;;;5114466;28;20814;-75
2023/05/19 00:36:48;;;;;;;2.43;1.20;;;;;;;;;;5113968;28;20443;-74
2023/05/19 00:39:15;;;;;;;5.70;1.67;;;;;;;;;;5114937;28;20455;-75
2023/05/19 00:41:44;;;;;;;4.40;1.70;;;;;;;;;;5113254;28;20447;-75
2023/05/19 00:44:11;;;;;;;2.43;1.20;;;;;;;;;;5114462;28;20458;-74
2023/05/19 00:46:38;;;;;;;2.13;0.93;;;;;;;;;;5114558;28;20453;-75
2023/05/19 00:49:05;;;;;;;2.20;1.80;;;;;;;;;;5114461;28;20457;-75
2023/05/19 00:51:32;;;;;;;2.80;1.73;;;;;;;;;;5113720;28;20475;-74
2023/05/19 00:53:59;;;;;;;1.87;1.30;;;;;;;;;;5113824;28;20873;-75
2023/05/19 00:56:27;;;;;;;2.63;1.50;;;;;;;;;;5106042;28;20443;-75
2023/05/19 00:58:56;;;;;;;2.13;1.30;;;;;;;;;;5113481;28;20818;-75
2023/05/19 01:01:25;;;;;;;2.20;1.37;;;;;;;;;;5100281;28;20444;-75
2023/05/19 01:03:55;;;;;;;1.53;1.20;;;;;;;;;;5113007;28;20460;-75
2023/05/19 01:06:22;;;;;;;1.77;1.10;;;;;;;;;;5113728;28;20489;-75
2023/05/19 01:08:49;;;;;;;7.90;2.00;;;;;;;;;;5113288;28;20498;-74
2023/05/19 01:11:16;;;;;;;3.57;2.43;;;;;;;;;;5114007;28;20483;-74
2023/05/19 01:13:43;;;;;;;4.13;1.20;;;;;;;;;;5113183;28;20454;-75
2023/05/19 01:16:13;;;;;;;1.90;1.30;;;;;;;;;;5100521;28;20455;-74
2023/05/19 01:18:45;;;;;;;2.70;1.47;;;;;;;;;;5112984;28;20464;-71
2023/05/19 01:21:30;;;;;;;3.57;1.20;;;;;;;;;;5113983;28;20938;-74
2023/05/19 01:24:01;;;;;;;1.67;1.10;;;;;;;;;;5110496;28;20885;-75
2023/05/19 01:26:43;;;;;;;1.80;1.03;;;;;;;;;;5112175;28;20446;-75
2023/05/19 01:29:24;;;;;;;2.63;1.23;;;;;;;;;;5113735;28;20466;-73
2023/05/19 01:31:54;;;;;;;2.37;1.10;;;;;;;;;;5112610;28;20471;-75
2023/05/19 01:34:23;;;;;;;3.43;1.33;;;;;;;;;;5113902;28;20455;-74
2023/05/19 01:36:51;;;;;;;2.93;1.50;;;;;;;;;;5112803;28;20891;-75
2023/05/19 01:39:19;;;;;;;4.00;1.60;;;;;;;;;;5112870;28;20455;-75
2023/05/19 01:41:46;;;;;;;2.43;1.37;;;;;;;;;;5112600;28;20451;-73
2023/05/19 01:44:14;;;;;;;1.30;0.80;;;;;;;;;;5113419;28;20444;-75
2023/05/19 01:46:42;;;;;;;1.60;1.00;;;;;;;;;;5112617;28;20952;-76
2023/05/19 01:49:11;;;;;;;1.67;1.03;;;;;;;;;;5112872;28;20467;-76
2023/05/19 01:51:38;;;;;;;1.47;1.00;;;;;;;;;;5112883;28;20503;-75
2023/05/19 01:54:05;;;;;;;4.60;1.20;;;;;;;;;;5112967;28;20527;-76
2023/05/19 01:56:39;;;;;;;1.60;1.30;;;;;;;;;;5103974;28;20454;-75
2023/05/19 01:59:14;;;;;;;2.77;1.57;;;;;;;;;;5113033;28;20496;-76
2023/05/19 02:01:46;;;;;;;1.70;0.90;;;;;;;;;;5099726;28;20496;-75
2023/05/19 02:04:20;;;;;;;2.63;1.20;;;;;;;;;;5112293;28;20440;-75
2023/05/19 02:06:50;;;;;;;3.20;1.70;;;;;;;;;;5112026;28;20504;-74
2023/05/19 02:09:23;;;;;;;1.67;1.10;;;;;;;;;;5112135;28;21001;-75
2023/05/19 02:11:53;;;;;;;2.90;2.30;;;;;;;;;;5111653;28;20497;-76
2023/05/19 02:14:21;;;;;;;2.07;1.30;;;;;;;;;;5112539;28;20462;-75
2023/05/19 02:16:49;;;;;;;1.60;1.00;;;;;;;;;;5112192;28;20471;-75
2023/05/19 02:19:25;;;;;;;2.10;1.13;;;;;;;;;;5112132;28;20451;-75
2023/05/19 02:21:52;;;;;;;2.50;1.70;;;;;;;;;;5111300;28;20926;-75
2023/05/19 02:24:21;;;;;;;6.43;1.30;;;;;;;;;;5112253;28;20946;-75
2023/05/19 02:26:49;;;;;;;6.60;1.67;;;;;;;;;;5110297;28;20535;-76
2023/05/19 02:29:16;;;;;;;1.50;1.13;;;;;;;;;;5112699;28;20440;-75
2023/05/19 02:31:43;;;;;;;2.20;2.00;;;;;;;;;;5111385;28;20483;-74
2023/05/19 02:34:10;;;;;;;2.20;1.33;;;;;;;;;;5111913;28;20444;-74
2023/05/19 02:36:41;;;;;;;5.47;1.17;;;;;;;;;;5112426;28;20805;-76
2023/05/19 02:39:09;;;;;;;4.47;1.50;;;;;;;;;;5112056;28;20460;-75
2023/05/19 02:41:36;;;;;;;2.50;1.80;;;;;;;;;;5111631;28;20455;-75
2023/05/19 02:44:04;;;;;;;1.60;1.00;;;;;;;;;;5111671;28;20803;-75
2023/05/19 02:46:31;;;;;;;2.10;1.20;;;;;;;;;;5112149;28;20448;-75
2023/05/19 02:48:58;;;;;;;2.90;1.63;;;;;;;;;;5111520;28;20448;-76
2023/05/19 02:51:25;;;;;;;1.77;1.00;;;;;;;;;;5110715;28;20475;-75
2023/05/19 02:53:53;;;;;;;2.00;1.60;;;;;;;;;;5111517;28;20454;-75
2023/05/19 02:56:21;;;;;;;2.27;1.23;;;;;;;;;;5103671;28;20447;-75
2023/05/19 02:58:48;;;;;;;2.40;1.20;;;;;;;;;;5111340;28;20452;-73
2023/05/19 03:01:15;;;;;;;2.43;1.50;;;;;;;;;;5098397;28;20446;-73
2023/05/19 03:03:42;;;;;;;2.23;1.43;;;;;;;;;;5110837;28;20444;-73
2023/05/19 03:06:09;;;;;;;1.77;1.00;;;;;;;;;;5111726;28;20460;-74
2023/05/19 03:08:36;;;;;;;2.77;2.57;;;;;;;;;;5112058;28;20892;-74
2023/05/19 03:11:05;;;;;;;1.57;1.07;;;;;;;;;;5111374;28;20819;-74
2023/05/19 03:13:32;;;;;;;1.60;1.20;;;;;;;;;;5111487;28;20475;-73
2023/05/19 03:16:00;;;;;;;3.97;1.00;;;;;;;;;;5111307;28;20444;-73
2023/05/19 03:18:28;;;;;;;3.03;1.37;;;;;;;;;;5111790;28;20454;-76
2023/05/19 03:20:55;;;;;;;2.60;1.53;;;;;;;;;;5111281;28;20474;-74
2023/05/19 03:23:22;;;;;;;2.33;1.40;;;;;;;;;;5111299;28;20454;-73
2023/05/19 03:25:49;;;;;;;3.03;1.40;;;;;;;;;;5110800;28;20455;-73
2023/05/19 03:28:18;;;;;;;1.60;1.13;;;;;;;;;;5111907;28;20530;-75
2023/05/19 03:30:45;;;;;;;1.30;0.80;;;;;;;;;;5110838;28;20458;-74
2023/05/19 03:33:12;;;;;;;1.60;1.10;;;;;;;;;;5110718;28;20985;-72
2023/05/19 03:35:39;;;;;;;1.90;1.33;;;;;;;;;;5111623;28;20948;-74
2023/05/19 03:38:06;;;;;;;2.47;1.60;;;;;;;;;;5111391;28;20542;-73
2023/05/19 03:40:33;;;;;;;1.60;1.00;;;;;;;;;;5111578;28;20459;-73
2023/05/19 03:43:00;;;;;;;2.97;1.50;;;;;;;;;;5110723;28;20820;-73
2023/05/19 03:45:29;;;;;;;1.97;1.57;;;;;;;;;;5111590;28;20444;-73
2023/05/19 03:47:56;;;;;;;5.00;2.70;;;;;;;;;;5110428;28;20451;-74
2023/05/19 03:50:23;;;;;;;4.10;1.40;;;;;;;;;;5111573;28;20447;-73
2023/05/19 03:52:50;;;;;;;2.20;1.20;;;;;;;;;;5110442;28;20831;-73
2023/05/19 03:55:18;;;;;;;5.43;1.50;;;;;;;;;;5108252;28;20445;-73
2023/05/19 03:57:46;;;;;;;2.37;1.40;;;;;;;;;;5106321;28;20542;-74
2023/05/19 04:00:13;;;;;;;4.37;1.67;;;;;;;;;;5102091;28;20440;-73
2023/05/19 04:02:42;;;;;;;3.20;1.57;;;;;;;;;;5109178;28;20470;-72
2023/05/19 04:05:09;;;;;;;2.80;1.77;;;;;;;;;;5115563;28;20448;-74
2023/05/19 04:07:36;;;;;;;2.93;1.53;;;;;;;;;;5115568;28;20498;-74
2023/05/19 04:10:04;;;;;;;2.20;1.27;;;;;;;;;;5114272;28;20475;-73
2023/05/19 04:12:32;;;;;;;2.77;1.40;;;;;;;;;;5114762;28;20487;-73
2023/05/19 04:14:59;;;;;;;2.17;1.83;;;;;;;;;;5114683;28;20449;-74
2023/05/19 04:17:26;;;;;;;1.90;1.23;;;;;;;;;;5115089;28;20440;-73
2023/05/19 04:19:55;;;;;;;2.27;1.37;;;;;;;;;;5114191;28;20520;-73
2023/05/19 04:22:22;;;;;;;1.93;1.17;;;;;;;;;;5114375;28;20934;-73
2023/05/19 04:24:51;;;;;;;4.40;1.60;;;;;;;;;;5114469;28;20447;-73
2023/05/19 04:27:18;;;;;;;2.93;1.70;;;;;;;;;;5115002;28;20453;-73
2023/05/19 04:29:47;;;;;;;2.13;1.43;;;;;;;;;;5114459;28;20824;-73
2023/05/19 04:32:16;;;;;;;2.70;1.60;;;;;;;;;;5114413;28;20485;-73
2023/05/19 04:34:45;;;;;;;4.50;1.43;;;;;;;;;;5114092;28;20501;-73
2023/05/19 04:37:15;;;;;;;2.00;1.20;;;;;;;;;;5114813;28;20799;-73
2023/05/19 04:39:44;;;;;;;1.93;1.03;;;;;;;;;;5114331;28;20456;-73
2023/05/19 04:42:12;;;;;;;4.67;2.23;;;;;;;;;;5114316;28;20465;-73
2023/05/19 04:44:39;;;;;;;2.90;1.30;;;;;;;;;;5114500;28;20479;-73
2023/05/19 04:47:07;;;;;;;1.73;1.10;;;;;;;;;;5114306;28;20922;-73
2023/05/19 04:49:37;;;;;;;3.30;1.60;;;;;;;;;;5114733;28;20492;-74
2023/05/19 04:52:05;;;;;;;2.73;1.30;;;;;;;;;;5113502;28;20475;-73
2023/05/19 04:54:34;;;;;;;2.20;1.60;;;;;;;;;;5114676;28;20496;-73
2023/05/19 04:57:01;;;;;;;1.70;1.30;;;;;;;;;;5105188;28;20451;-74
2023/05/19 04:59:28;;;;;;;2.57;1.40;;;;;;;;;;5114271;28;20439;-74
2023/05/19 05:01:55;;;;;;;1.90;1.40;;;;;;;;;;5113047;28;20444;-75
2023/05/19 05:04:22;;;;;;;3.23;1.20;;;;;;;;;;5114177;28;20478;-75
2023/05/19 05:06:49;;;;;;;2.93;1.80;;;;;;;;;;5113805;28;20467;-76
2023/05/19 05:09:17;;;;;;;2.60;1.70;;;;;;;;;;5113643;28;20472;-75
2023/05/19 05:11:46;;;;;;;5.00;2.13;;;;;;;;;;5113110;28;20462;-75
2023/05/19 05:14:14;;;;;;;2.30;1.27;;;;;;;;;;5113056;28;20829;-75
2023/05/19 05:16:42;;;;;;;4.60;1.53;;;;;;;;;;5113218;28;20455;-74
2023/05/19 05:19:09;;;;;;;3.07;1.40;;;;;;;;;;5113997;28;20448;-75
2023/05/19 05:21:36;;;;;;;1.90;1.70;;;;;;;;;;5113414;28;20451;-75
2023/05/19 05:24:04;;;;;;;3.00;1.53;;;;;;;;;;5113182;28;20455;-75
2023/05/19 05:26:31;;;;;;;1.47;0.90;;;;;;;;;;5111414;28;20456;-75
2023/05/19 05:29:00;;;;;;;2.10;1.70;;;;;;;;;;5112944;28;20961;-75
2023/05/19 05:31:27;;;;;;;2.13;1.63;;;;;;;;;;5113041;28;20443;-75
2023/05/19 05:33:55;;;;;;;2.70;1.57;;;;;;;;;;5112971;28;20479;-75
2023/05/19 05:36:22;;;;;;;4.60;2.17;;;;;;;;;;5113416;28;20942;-75
2023/05/19 05:38:49;;;;;;;2.27;1.50;;;;;;;;;;5113161;28;20456;-75
2023/05/19 05:41:16;;;;;;;4.47;1.60;;;;;;;;;;5113296;28;20451;-74
2023/05/19 05:43:43;;;;;;;1.70;1.23;;;;;;;;;;5112938;28;20755;-74
2023/05/19 05:46:11;;;;;;;2.43;1.80;;;;;;;;;;5113686;28;20451;-73
2023/05/19 05:48:41;;;;;;;3.70;1.83;;;;;;;;;;5113413;28;20444;-73
2023/05/19 05:51:09;;;;;;;4.00;1.93;;;;;;;;;;5113148;28;20857;-73
2023/05/19 05:53:37;;;;;;;2.70;1.57;;;;;;;;;;5113228;28;20479;-75
2023/05/19 05:56:05;;;;;;;2.73;1.33;;;;;;;;;;5103445;28;20448;-75
2023/05/19 05:58:33;;;;;;;1.83;1.30;;;;;;;;;;5112973;28;20450;-76
2023/05/19 06:01:01;;;;;;;3.20;1.50;;;;;;;;;;5112329;28;20452;-74
2023/05/19 06:03:32;;;;;;;2.20;1.47;;;;;;;;;;5113121;28;20551;-75
2023/05/19 06:06:00;;;;;;;3.00;1.40;;;;;;;;;;5112772;28;20854;-76
2023/05/19 06:08:27;;;;;;;2.30;1.23;;;;;;;;;;5112530;28;20544;-75
2023/05/19 06:10:54;;;;;;;3.93;1.63;;;;;;;;;;5112576;28;20447;-75
2023/05/19 06:13:22;;;;;;;2.93;1.80;;;;;;;;;;5112551;28;20487;-75
2023/05/19 06:15:49;;;;;;;2.77;1.30;;;;;;;;;;5112322;28;20461;-76
2023/05/19 06:18:17;;;;;;;4.17;1.83;;;;;;;;;;5112809;28;20448;-74
2023/05/19 06:20:45;;;;;;;2.60;1.50;;;;;;;;;;5112310;28;20448;-75
2023/05/19 06:23:12;;;;;;;2.30;1.70;;;;;;;;;;5112469;28;20802;-75
2023/05/19 06:25:39;;;;;;;1.90;1.30;;;;;;;;;;5111622;28;20451;-76
2023/05/19 06:28:06;;;;;;;1.63;1.20;;;;;;;;;;5112859;28;20443;-76
2023/05/19 06:30:35;;;;;;;2.43;1.70;;;;;;;;;;5112195;28;20930;-76
2023/05/19 06:33:02;;;;;;;5.93;1.93;;;;;;;;;;5111699;28;20483;-76
2023/05/19 06:35:30;;;;;;;2.43;1.30;;;;;;;;;;5112253;28;20486;-76
2023/05/19 06:37:58;;;;;;;2.30;1.50;;;;;;;;;;5112021;28;20455;-75
2023/05/19 06:40:25;;;;;;;2.60;1.70;;;;;;;;;;5112408;28;20467;-75
2023/05/19 06:42:52;;;;;;;2.00;1.50;;;;;;;;;;5111227;28;20443;-75
2023/05/19 06:45:21;;;;;;;5.00;1.50;;;;;;;;;;5098615;28;20473;-75
2023/05/19 06:47:48;;;;;;;2.00;1.40;;;;;;;;;;5111701;28;20462;-74
2023/05/19 06:50:15;;;;;;;5.37;1.57;;;;;;;;;;5111775;28;20454;-76
2023/05/19 06:52:43;;;;;;;2.57;1.70;;;;;;;;;;5111308;28;20842;-76
2023/05/19 06:55:11;;;;;;;2.27;1.57;;;;;;;;;;5110283;28;20440;-75
2023/05/19 06:57:38;;;;;;;2.40;1.63;;;;;;;;;;5106752;28;20443;-76
2023/05/19 07:00:10;;;;;;;5.23;1.47;;;;;;;;;;5103956;28;20437;-76
2023/05/19 07:02:38;;;;;;;2.50;1.60;;;;;;;;;;5107427;28;20794;-75
2023/05/19 07:05:06;;;;;;;1.80;1.40;;;;;;;;;;5112345;28;20454;-76
2023/05/19 07:07:34;;;;;;;2.77;1.60;;;;;;;;;;5111751;28;20487;-75
2023/05/19 07:10:01;;;;;;;2.63;1.50;;;;;;;;;;5111449;28;20471;-75
2023/05/19 07:12:30;;;;;;;3.00;1.80;;;;;;;;;;5111394;28;20443;-76
2023/05/19 07:14:57;;;;;;;3.13;1.63;;;;;;;;;;5111465;28;20803;-76
2023/05/19 07:17:24;;;;;;;2.83;1.90;;;;;;;;;;5111814;28;20458;-75
2023/05/19 07:19:51;;;;;;;5.17;1.73;;;;;;;;;;5111163;28;20452;-75
2023/05/19 07:22:18;;;;;;;3.60;1.50;;;;;;;;;;5111359;28;20450;-75
2023/05/19 07:24:45;;;;;;;3.43;2.00;;;;;;;;;;5111055;28;20522;-74
2023/05/19 07:27:12;;;;;;;2.10;1.40;;;;;;;;;;5110888;28;20450;-73
2023/05/19 07:29:41;;;;;;;2.10;1.30;;;;;;;;;;5111659;28;20447;-74
2023/05/19 07:32:08;;;;;;;2.67;1.40;;;;;;;;;;5111385;28;20454;-75
2023/05/19 07:34:35;;;;;;;2.23;1.43;;;;;;;;;;5111195;28;20892;-75
2023/05/19 07:37:02;;;;;;;2.70;1.80;;;;;;;;;;5110085;28;20934;-74
2023/05/19 07:39:31;;;;;;;3.17;1.40;;;;;;;;;;5111604;28;20448;-75
2023/05/19 07:41:58;;;;;;;2.27;1.20;;;;;;;;;;5110527;28;20443;-74
2023/05/19 07:44:25;;;;;;;2.10;1.50;;;;;;;;;;5111191;28;20962;-75
2023/05/19 07:46:54;;;;;;;3.10;1.30;;;;;;;;;;5110819;28;20547;-74
2023/05/19 07:49:21;;;;;;;1.60;1.00;;;;;;;;;;5111439;28;20439;-74
2023/05/19 07:51:48;;;;;;;4.07;1.80;;;;;;;;;;5110458;28;20447;-74
2023/05/19 07:54:15;;;;;;;2.70;1.80;;;;;;;;;;5111430;28;20479;-74
2023/05/19 07:56:42;;;;;;;2.10;1.40;;;;;;;;;;5101987;28;20444;-74
2023/05/19 07:59:10;;;;;;;2.00;1.37;;;;;;;;;;5110868;28;20444;-74
2023/05/19 08:01:37;;;;;;;3.00;1.40;;;;;;;;;;5097795;28;20961;-74
2023/05/19 08:04:05;;;;;;;4.77;1.97;;;;;;;;;;5110528;28;20456;-74
2023/05/19 08:06:32;;;;;;;2.23;1.40;;;;;;;;;;5111388;28;20452;-75
2023/05/19 08:08:59;;;;;;;5.10;2.13;;;;;;;;;;5110350;28;20479;-75
2023/05/19 08:11:27;;;;;;;3.63;1.50;;;;;;;;;;5110534;28;20927;-74
2023/05/19 08:13:54;;;;;;;2.10;1.73;;;;;;;;;;5110660;28;20562;-75
2023/05/19 08:16:21;;;;;;;2.20;1.43;;;;;;;;;;5110911;28;20945;-74
2023/05/19 08:18:48;;;;;;;3.03;1.83;;;;;;;;;;5110369;28;20443;-74
2023/05/19 08:21:16;;;;;;;3.67;1.77;;;;;;;;;;5110881;28;20459;-74
2023/05/19 08:23:43;;;;;;;4.00;1.70;;;;;;;;;;5110509;28;20470;-74
2023/05/19 08:26:10;;;;;;;2.20;1.50;;;;;;;;;;5109955;28;20440;-73
2023/05/19 08:28:37;;;;;;;2.20;1.37;;;;;;;;;;5111347;28;20448;-75
2023/05/19 08:31:05;;;;;;;3.53;1.77;;;;;;;;;;5109968;28;20455;-75
2023/05/19 08:33:32;;;;;;;2.63;1.23;;;;;;;;;;5110693;28;20471;-74
2023/05/19 08:35:59;;;;;;;1.97;1.23;;;;;;;;;;5110410;28;20460;-74
2023/05/19 08:38:27;;;;;;;2.43;1.63;;;;;;;;;;5110977;28;20453;-74
2023/05/19 08:40:56;;;;;;;2.97;1.83;;;;;;;;;;5110111;28;20448;-74
2023/05/19 08:43:23;;;;;;;2.13;1.50;;;;;;;;;;5110558;28;20456;-74
2023/05/19 08:45:52;;;;;;;3.20;1.63;;;;;;;;;;5110033;28;20444;-73
2023/05/19 08:48:20;;;;;;;2.60;1.90;;;;;;;;;;5111623;28;20888;-74
2023/05/19 08:50:50;;;;;;;2.60;1.43;;;;;;;;;;5113520;28;20486;-74
2023/05/19 08:53:21;;;;;;;2.03;1.20;;;;;;;;;;5114230;28;20977;-75
2023/05/19 08:55:52;;;;;;;3.10;1.60;;;;;;;;;;5113681;28;20431;-74
2023/05/19 08:58:20;;;;;;;4.70;1.87;;;;;;;;;;5114395;28;20494;-75
2023/05/19 09:00:48;;;;;;;2.50;1.60;;;;;;;;;;5113390;28;20436;-75
2023/05/19 09:03:16;;;;;;;3.10;1.30;;;;;;;;;;5114420;28;20451;-76
2023/05/19 09:05:43;;;;;;;1.80;1.43;;;;;;;;;;5113279;28;20931;-76
2023/05/19 09:08:10;;;;;;;3.70;1.97;;;;;;;;;;5114329;28;20460;-74
2023/05/19 09:10:37;;;;;;;3.40;1.37;;;;;;;;;;5114412;28;20439;-75
2023/05/19 09:13:06;;;;;;;1.50;1.17;;;;;;;;;;5113175;28;20805;-75
2023/05/19 09:15:35;;;;;;;3.73;2.13;;;;;;;;;;5114020;28;20804;-76
2023/05/19 09:18:08;;;;;;;3.07;1.63;;;;;;;;;;5113379;28;20456;-75
2023/05/19 09:20:40;;;;;;;4.30;1.97;;;;;;;;;;5113732;28;20463;-74
2023/05/19 09:23:07;;;;;;;6.60;1.87;;;;;;;;;;5114138;28;20455;-74
2023/05/19 09:25:35;;;;;;;2.10;1.40;;;;;;;;;;5112714;28;20489;-74
2023/05/19 09:28:02;;;;;;;3.13;1.93;;;;;;;;;;5113300;28;20505;-74
2023/05/19 09:30:30;;;;;;;6.10;1.40;;;;;;;;;;5113739;28;20448;-74
2023/05/19 09:32:58;;;;;;;2.40;1.40;;;;;;;;;;5112486;28;20444;-76
2023/05/19 09:35:25;;;;;;;4.47;1.53;;;;;;;;;;5113109;28;21039;-74
2023/05/19 09:37:55;;;;;;;5.20;1.83;;;;;;;;;;5112774;28;20455;-74
2023/05/19 09:40:22;;;;;;;4.80;2.20;;;;;;;;;;5113650;28;20793;-73
2023/05/19 09:42:49;;;;;;;1.80;1.10;;;;;;;;;;5112633;28;20448;-72
2023/05/19 09:45:17;;;;;;;2.30;1.53;;;;;;;;;;5113448;28;20504;-72
2023/05/19 09:47:45;;;;;;;2.57;2.00;;;;;;;;;;5112899;28;20447;-72
2023/05/19 09:50:13;;;;;;;2.10;1.03;;;;;;;;;;5112892;28;20455;-73
2023/05/19 09:52:43;;;;;;;2.27;1.20;;;;;;;;;;5112413;28;20444;-72
2023/05/19 09:55:11;;;;;;;5.90;1.60;;;;;;;;;;5098177;28;20485;-73
2023/05/19 09:57:38;;;;;;;4.40;2.07;;;;;;;;;;5107598;28;20444;-73
2023/05/19 10:00:14;;;;;;;3.87;1.50;;;;;;;;;;5112792;28;20483;-73
2023/05/19 10:02:42;;;;;;;2.63;1.53;;;;;;;;;;5112088;28;20859;-72
2023/05/19 10:05:11;;;;;;;3.03;2.20;;;;;;;;;;5113154;28;20452;-73
2023/05/19 10:07:40;;;;;;;3.10;1.00;;;;;;;;;;5113074;28;20494;-73
2023/05/19 10:10:09;;;;;;;3.57;1.73;;;;;;;;;;5112573;28;20476;-73
2023/05/19 10:12:38;;;;;;;1.83;1.30;;;;;;;;;;5112462;28;20867;-73
2023/05/19 10:15:06;;;;;;;2.57;1.50;;;;;;;;;;5112817;28;20482;-73
2023/05/19 10:17:34;;;;;;;2.80;1.40;;;;;;;;;;5112769;28;20451;-75
2023/05/19 10:20:01;;;;;;;1.93;1.30;;;;;;;;;;5111826;28;20458;-74
2023/05/19 10:22:30;;;;;;;3.23;1.60;;;;;;;;;;5112293;28;20498;-74
2023/05/19 10:24:57;;;;;;;2.70;1.67;;;;;;;;;;5111720;28;20455;-74
2023/05/19 10:27:24;;;;;;;2.77;1.63;;;;;;;;;;5111919;28;20451;-77
2023/05/19 10:29:52;;;;;;;3.50;1.60;;;;;;;;;;5111784;28;20436;-73
2023/05/19 10:32:21;;;;;;;2.47;1.20;;;;;;;;;;5111851;28;20444;-73
2023/05/19 10:35:09;;;;;;;1.77;1.10;;;;;;;;;;5111816;28;20476;-73
2023/05/19 10:37:42;;;;;;;2.43;1.30;;;;;;;;;;5112307;28;20939;-74
2023/05/19 10:40:13;;;;;;;5.40;1.47;;;;;;;;;;5112601;28;20446;-73
2023/05/19 10:42:45;;;;;;;2.97;1.40;;;;;;;;;;5111441;28;20439;-71
2023/05/19 10:45:14;;;;;;;4.20;1.93;;;;;;;;;;5112102;28;20492;-73
2023/05/19 10:47:41;;;;;;;3.07;1.37;;;;;;;;;;5111579;28;20466;-73
2023/05/19 10:50:09;;;;;;;1.70;1.23;;;;;;;;;;5112240;28;20452;-74
2023/05/19 10:52:37;;;;;;;1.67;1.30;;;;;;;;;;5111906;28;20458;-74
2023/05/19 10:55:07;;;;;;;2.23;1.50;;;;;;;;;;5110508;28;20482;-74
2023/05/19 10:57:35;;;;;;;3.30;1.43;;;;;;;;;;5105485;28;20953;-74
2023/05/19 11:00:10;;;;;;;3.27;1.30;;;;;;;;;;5103868;28;20447;-75
2023/05/19 11:02:38;;;;;;;2.50;1.57;;;;;;;;;;5106794;28;20451;-74
2023/05/19 11:05:09;;;;;;;2.10;1.30;;;;;;;;;;5112218;28;20853;-74
2023/05/19 11:07:36;;;;;;;2.43;1.40;;;;;;;;;;5112096;28;20520;-75
2023/05/19 11:10:07;;;;;;;1.50;1.20;;;;;;;;;;5111489;28;20843;-74
2023/05/19 11:12:42;;;;;;;6.03;1.67;;;;;;;;;;5110954;28;20494;-74
2023/05/19 11:15:11;;;;;;;2.43;1.30;;;;;;;;;;5111819;28;20482;-75
2023/05/19 11:17:38;;;;;;;2.00;1.37;;;;;;;;;;5111903;28;20486;-74
2023/05/19 11:20:08;;;;;;;2.17;1.30;;;;;;;;;;5111859;28;20848;-73
2023/05/19 11:22:35;;;;;;;2.20;1.40;;;;;;;;;;5111458;28;20810;-74
2023/05/19 11:25:03;;;;;;;4.70;1.67;;;;;;;;;;5110260;28;20543;-74
2023/05/19 11:27:32;;;;;;;1.83;1.23;;;;;;;;;;5111551;28;20451;-74
2023/05/19 11:30:00;;;;;;;2.40;1.40;;;;;;;;;;5111098;28;20450;-74
2023/05/19 11:32:30;;;;;;;2.30;1.57;;;;;;;;;;5110991;28;20452;-74
2023/05/19 11:34:57;;;;;;;3.80;1.47;;;;;;;;;;5110625;28;20480;-75
2023/05/19 11:37:24;;;;;;;2.73;1.70;;;;;;;;;;5111435;28;20460;-74
2023/05/19 11:39:52;;;;;;;2.57;1.77;;;;;;;;;;5110628;28;20448;-74
2023/05/19 11:42:19;;;;;;;3.93;1.40;;;;;;;;;;5111122;28;20449;-74
2023/05/19 11:44:47;;;;;;;2.63;1.83;;;;;;;;;;5111070;28;20777;-75
2023/05/19 11:47:15;;;;;;;2.50;1.30;;;;;;;;;;5111285;28;20448;-74
2023/05/19 11:49:44;;;;;;;2.73;1.70;;;;;;;;;;5110369;28;20502;-74
2023/05/19 11:52:11;;;;;;;3.40;2.17;;;;;;;;;;5110912;28;20440;-74
2023/05/19 11:54:40;;;;;;;3.83;2.00;;;;;;;;;;5111522;28;20498;-74
2023/05/19 11:57:08;;;;;;;2.57;1.53;;;;;;;;;;5102881;28;20532;-75
2023/05/19 11:59:37;;;;;;;2.50;1.23;;;;;;;;;;5107462;28;20948;-75
2023/05/19 12:02:16;;;;;;;2.20;1.20;;;;;;;;;;5102633;28;20950;-73
2023/05/19 12:04:43;;;;;;;5.10;1.80;;;;;;;;;;5109972;28;20440;-72
2023/05/19 12:07:12;;;;;;;3.00;2.03;;;;;;;;;;5110826;28;20938;-72
2023/05/19 12:09:39;;;;;;;2.17;1.63;;;;;;;;;;5097782;28;20475;-72
2023/05/19 12:12:06;;;;;;;2.37;1.43;;;;;;;;;;5110587;28;20939;-72
2023/05/19 12:14:34;;;;;;;2.10;1.57;;;;;;;;;;5111138;28;20471;-72
2023/05/19 12:17:12;;;;;;;2.37;1.60;;;;;;;;;;5110659;28;20443;-72
2023/05/19 12:19:40;;;;;;;1.93;1.40;;;;;;;;;;5111362;28;20435;-72
2023/05/19 12:22:07;;;;;;;1.77;1.20;;;;;;;;;;5111331;28;20458;-72
2023/05/19 12:24:35;;;;;;;4.90;1.70;;;;;;;;;;5115018;28;20451;-72
2023/05/19 12:27:06;;;;;;;2.20;1.50;;;;;;;;;;5114246;28;20454;-72
2023/05/19 12:29:33;;;;;;;2.30;1.43;;;;;;;;;;5114356;28;20447;-72
2023/05/19 12:32:01;;;;;;;2.07;1.50;;;;;;;;;;5113636;28;20652;-73
2023/05/19 12:34:30;;;;;;;3.53;2.10;;;;;;;;;;5114242;28;20483;-72
2023/05/19 12:36:57;;;;;;;2.70;1.40;;;;;;;;;;5113566;28;20459;-72
2023/05/19 12:39:25;;;;;;;2.83;1.60;;;;;;;;;;5114660;28;20448;-72
2023/05/19 12:41:52;;;;;;;3.20;1.20;;;;;;;;;;5113623;28;20804;-72
2023/05/19 12:44:19;;;;;;;4.97;1.83;;;;;;;;;;5114540;28;20887;-73
2023/05/19 12:46:46;;;;;;;5.67;1.30;;;;;;;;;;5113805;28;20447;-72
2023/05/19 12:49:13;;;;;;;2.40;1.27;;;;;;;;;;5114430;28;20452;-73
2023/05/19 12:51:42;;;;;;;3.20;1.47;;;;;;;;;;5099113;27;20456;-70
2023/05/19 12:54:09;;;;;;;3.50;1.83;;;;;;;;;;5099012;28;20453;-66
2023/05/19 12:56:36;;;;;;;2.77;2.00;;;;;;;;;;5104090;27;20492;-68
2023/05/19 12:59:03;;;;;;;1.97;1.53;;;;;;;;;;5103431;28;20464;-67
2023/05/19 13:01:31;;;;;;;1.90;1.57;;;;;;;;;;5099289;27;20550;-67
2023/05/19 13:03:58;;;;;;;2.97;1.70;;;;;;;;;;5111911;28;20988;-68
2023/05/19 13:06:26;;;;;;;2.40;1.60;;;;;;;;;;5113014;28;20448;-66
2023/05/19 13:08:57;;;;;;;1.80;1.60;;;;;;;;;;5112076;28;20478;-66
2023/05/19 13:11:24;;;;;;;2.37;1.30;;;;;;;;;;5113632;28;20798;-67
2023/05/19 13:13:51;;;;;;;1.83;1.30;;;;;;;;;;5113200;28;20463;-68
2023/05/19 13:16:18;;;;;;;2.10;1.30;;;;;;;;;;5113767;28;20483;-68
2023/05/19 13:18:45;;;;;;;2.70;1.63;;;;;;;;;;5113047;28;20448;-68
2023/05/19 13:21:13;;;;;;;2.50;1.33;;;;;;;;;;5113498;28;20456;-65
2023/05/19 13:23:40;;;;;;;2.37;1.40;;;;;;;;;;5112790;28;20444;-68
2023/05/19 13:26:12;;;;;;;2.13;1.20;;;;;;;;;;5112093;28;20813;-66
2023/05/19 13:28:39;;;;;;;3.13;2.13;;;;;;;;;;5112186;28;20448;-67
2023/05/19 13:31:06;;;;;;;4.23;1.60;;;;;;;;;;5108480;28;20460;-66
2023/05/19 13:33:33;;;;;;;4.23;1.90;;;;;;;;;;5105771;27;20452;-67
2023/05/19 13:36:00;;;;;;;1.80;1.60;;;;;;;;;;5113371;27;21264;-67
2023/05/19 13:38:29;;;;;;;2.17;1.70;;;;;;;;;;5113902;27;20495;-66
2023/05/19 13:40:56;;;;;;;2.30;1.73;;;;;;;;;;5110883;27;20463;-65
2023/05/19 13:43:24;;;;;;;1.70;1.43;;;;;;;;;;5112397;28;20448;-68
2023/05/19 13:45:51;;;;;;;5.77;2.00;;;;;;;;;;5111731;27;20443;-65
2023/05/19 13:48:18;;;;;;;6.63;1.60;;;;;;;;;;5117318;27;20469;-67
2023/05/19 13:50:45;;;;;;;3.27;1.70;;;;;;;;;;5103857;27;20464;-63
2023/05/19 13:53:13;;;;;;;2.73;1.80;;;;;;;;;;5113373;27;20482;-65
2023/05/19 13:55:40;;;;;;;2.50;1.80;;;;;;;;;;5115308;27;20483;-66
2023/05/19 13:58:09;;;;;;;3.27;1.20;;;;;;;;;;5113698;27;20455;-65
2023/05/19 14:00:38;;;;;;;4.23;1.70;;;;;;;;;;5112619;28;20440;-65
2023/05/19 14:03:05;;;;;;;2.33;1.80;;;;;;;;;;5112918;28;20518;-66
2023/05/19 14:05:33;;;;;;;2.17;1.40;;;;;;;;;;5112685;28;20452;-66
2023/05/19 14:08:02;;;;;;;2.17;1.47;;;;;;;;;;5111706;28;20851;-65
2023/05/19 14:10:29;;;;;;;2.60;2.27;;;;;;;;;;5112634;28;20475;-65
2023/05/19 14:12:58;;;;;;;5.73;2.00;;;;;;;;;;5112465;28;20443;-66
2023/05/19 14:15:25;;;;;;;1.93;1.57;;;;;;;;;;5112733;28;20500;-66
2023/05/19 14:17:54;;;;;;;3.40;1.50;;;;;;;;;;5112198;28;20817;-66
2023/05/19 14:20:21;;;;;;;4.03;1.83;;;;;;;;;;5111879;28;20571;-66
2023/05/19 14:22:48;;;;;;;2.73;1.50;;;;;;;;;;5112171;28;20810;-66
2023/05/19 14:25:15;;;;;;;1.90;1.20;;;;;;;;;;5110992;28;20528;-66
2023/05/19 14:27:42;;;;;;;2.83;1.73;;;;;;;;;;5111871;28;20446;-67
2023/05/19 14:30:10;;;;;;;1.80;1.30;;;;;;;;;;5112619;28;20442;-67
2023/05/19 14:32:37;;;;;;;2.40;1.40;;;;;;;;;;5114260;27;20560;-65
2023/05/19 14:35:06;;;;;;;4.00;2.60;;;;;;;;;;5107225;27;20461;-67
2023/05/19 14:37:33;;;;;;;4.80;2.03;;;;;;;;;;5091927;28;20471;-67
2023/05/19 14:40:00;;;;;;;2.77;1.67;;;;;;;;;;5104601;28;21302;-67
2023/05/19 14:42:27;;;;;;;3.67;2.10;;;;;;;;;;5106568;27;20462;-66
2023/05/19 14:44:54;;;;;;;3.53;1.70;;;;;;;;;;5108771;27;20996;-66
2023/05/19 14:47:21;;;;;;;3.70;1.40;;;;;;;;;;5111410;28;20444;-66
2023/05/19 14:49:49;;;;;;;3.43;1.60;;;;;;;;;;5110616;27;20530;-66